This is the latest recevied weather packets stored in our database for station/object N4QEP-13. If no packets are shown the sender has not sent any weather packets the latest 10 day(s).
| Time | Temp. | Humidity | Pressure | Rain* | Wind** | Luminosity | Snow |
|---|---|---|---|---|---|---|---|
| 1777833068 | 23.89° C | 21% | 1021.1 hPa | 0 mm | - | - | - |
| 1777832178 | 23.33° C | 24% | 1021.1 hPa | 0 mm | - | - | - |
| 1777831249 | 23.33° C | 23% | 1021 hPa | 0 mm | - | - | - |
| 1777830348 | 23.33° C | 21% | 1021.2 hPa | 0 mm | - | - | - |
| 1777829453 | 22.78° C | 20% | 1021.4 hPa | 0 mm | - | - | - |
| 1777828543 | 22.78° C | 21% | 1021.6 hPa | 0 mm | - | - | - |
| 1777827641 | 22.22° C | 20% | 1022 hPa | 0 mm | - | - | - |
| 1777826740 | 22.22° C | 20% | 1022.1 hPa | 0 mm | - | - | - |
| 1777825846 | 22.78° C | 20% | 1022.2 hPa | 0 mm | - | - | - |
| 1777824935 | 22.22° C | 22% | 1022.5 hPa | 0 mm | - | - | - |
| 1777824035 | 21.67° C | 27% | 1022.5 hPa | 0 mm | - | - | - |
| 1777823145 | 21.67° C | 24% | 1022.8 hPa | 0 mm | - | - | - |
| 1777822226 | 21.11° C | 28% | 1022.9 hPa | 0 mm | - | - | - |
| 1777821322 | 20.56° C | 31% | 1022.9 hPa | 0 mm | - | - | - |
| 1777820420 | 20° C | 37% | 1023 hPa | 0 mm | - | - | - |
| 1777819516 | 19.44° C | 39% | 1022.9 hPa | 0 mm | - | - | - |
| 1777818643 | 18.89° C | 39% | 1023 hPa | 0 mm | - | - | - |
| 1777817739 | 17.78° C | 44% | 1022.7 hPa | 0 mm | - | - | - |
| 1777816838 | 17.22° C | 56% | 1022.4 hPa | 0 mm | - | - | - |
| 1777815928 | 16.11° C | 59% | 1022.3 hPa | 0 mm | - | - | - |
| 1777815027 | 14.44° C | 64% | 1022.4 hPa | 0 mm | - | - | - |
| 1777814132 | 13.89° C | 65% | 1022.1 hPa | 0 mm | - | - | - |
| 1777813249 | 13.33° C | 67% | 1022 hPa | 0 mm | - | - | - |
| 1777812343 | 11.67° C | 70% | 1021.9 hPa | 0 mm | - | - | - |
| 1777811435 | 10.56° C | 74% | 1022 hPa | 0 mm | - | - | - |
* Rain latest hour (hover to see other rain measurements)
** Current wind speed in m/s (hover to see current wind gust speed)